sensor_id;sensor_type;location;lat;lon;timestamp;pressure;altitude;pressure_sealevel;temperature;humidity
64698;BME280;51124;53.394;-6.294;2024-02-26T00:02:22;100207.09;;;15.45;8.77
64698;BME280;51124;53.394;-6.294;2024-02-26T00:04:50;100213.33;;;14.97;9.74
64698;BME280;51124;53.394;-6.294;2024-02-26T00:07:17;100217.62;;;15.88;9.28
64698;BME280;51124;53.394;-6.294;2024-02-26T00:09:45;100224.66;;;15.75;9.38
64698;BME280;51124;53.394;-6.294;2024-02-26T00:12:12;100232.37;;;15.94;9.43
64698;BME280;51124;53.394;-6.294;2024-02-26T00:14:39;100235.07;;;15.30;9.36
64698;BME280;51124;53.394;-6.294;2024-02-26T00:17:07;100240.30;;;15.14;9.25
64698;BME280;51124;53.394;-6.294;2024-02-26T00:19:35;100242.65;;;16.06;9.13
64698;BME280;51124;53.394;-6.294;2024-02-26T00:22:02;100246.07;;;15.55;9.23
64698;BME280;51124;53.394;-6.294;2024-02-26T00:24:30;100251.32;;;15.89;9.30
64698;BME280;51124;53.394;-6.294;2024-02-26T00:26:57;100253.26;;;16.13;9.25
64698;BME280;51124;53.394;-6.294;2024-02-26T00:29:25;100257.92;;;14.93;9.23
64698;BME280;51124;53.394;-6.294;2024-02-26T00:31:52;100264.78;;;15.25;9.05
64698;BME280;51124;53.394;-6.294;2024-02-26T00:34:20;100267.75;;;15.21;9.00
64698;BME280;51124;53.394;-6.294;2024-02-26T00:36:47;100274.41;;;15.70;9.00
64698;BME280;51124;53.394;-6.294;2024-02-26T00:39:15;100278.28;;;15.64;9.03
64698;BME280;51124;53.394;-6.294;2024-02-26T00:41:42;100282.20;;;18.35;9.37
64698;BME280;51124;53.394;-6.294;2024-02-26T00:44:10;100301.23;;;16.82;9.70
64698;BME280;51124;53.394;-6.294;2024-02-26T00:46:37;100311.09;;;15.13;9.83
64698;BME280;51124;53.394;-6.294;2024-02-26T00:49:05;100312.87;;;17.47;9.65
64698;BME280;51124;53.394;-6.294;2024-02-26T00:51:32;100314.58;;;19.02;10.17
64698;BME280;51124;53.394;-6.294;2024-02-26T00:54:00;100321.52;;;18.68;10.56
64698;BME280;51124;53.394;-6.294;2024-02-26T00:56:28;100324.06;;;18.08;10.83
64698;BME280;51124;53.394;-6.294;2024-02-26T00:58:56;100332.17;;;17.54;11.02
64698;BME280;51124;53.394;-6.294;2024-02-26T01:01:24;100333.25;;;17.66;11.12
64698;BME280;51124;53.394;-6.294;2024-02-26T01:03:52;100341.99;;;17.68;11.27
64698;BME280;51124;53.394;-6.294;2024-02-26T01:06:19;100349.76;;;18.15;11.28
64698;BME280;51124;53.394;-6.294;2024-02-26T01:08:47;100349.69;;;18.04;11.37
64698;BME280;51124;53.394;-6.294;2024-02-26T01:11:15;100354.88;;;17.41;11.41
64698;BME280;51124;53.394;-6.294;2024-02-26T01:13:43;100359.85;;;17.65;11.49
64698;BME280;51124;53.394;-6.294;2024-02-26T01:16:11;100365.36;;;17.38;11.37
64698;BME280;51124;53.394;-6.294;2024-02-26T01:18:39;100362.29;;;17.69;11.36
64698;BME280;51124;53.394;-6.294;2024-02-26T01:21:07;100369.56;;;17.79;11.23
64698;BME280;51124;53.394;-6.294;2024-02-26T01:23:35;100376.26;;;18.16;11.50
64698;BME280;51124;53.394;-6.294;2024-02-26T01:26:02;100382.81;;;18.01;11.49
64698;BME280;51124;53.394;-6.294;2024-02-26T01:28:30;100395.65;;;17.58;11.47
64698;BME280;51124;53.394;-6.294;2024-02-26T01:30:58;100404.89;;;17.02;11.61
64698;BME280;51124;53.394;-6.294;2024-02-26T01:33:27;100408.86;;;17.73;11.50
64698;BME280;51124;53.394;-6.294;2024-02-26T01:35:55;100412.71;;;17.00;11.51
64698;BME280;51124;53.394;-6.294;2024-02-26T01:38:22;100412.99;;;17.24;11.50
64698;BME280;51124;53.394;-6.294;2024-02-26T01:40:50;100417.34;;;16.02;11.39
64698;BME280;51124;53.394;-6.294;2024-02-26T01:43:17;100415.53;;;15.20;11.09
64698;BME280;51124;53.394;-6.294;2024-02-26T01:45:45;100422.97;;;14.92;10.75
64698;BME280;51124;53.394;-6.294;2024-02-26T01:48:12;100430.67;;;14.77;10.43
64698;BME280;51124;53.394;-6.294;2024-02-26T01:50:40;100442.80;;;15.51;10.19
64698;BME280;51124;53.394;-6.294;2024-02-26T01:53:08;100461.62;;;15.36;10.09
64698;BME280;51124;53.394;-6.294;2024-02-26T01:55:36;100469.05;;;15.14;9.98
64698;BME280;51124;53.394;-6.294;2024-02-26T01:58:04;100475.22;;;14.72;9.91
64698;BME280;51124;53.394;-6.294;2024-02-26T02:00:32;100482.12;;;15.57;9.72
64698;BME280;51124;53.394;-6.294;2024-02-26T02:03:00;100484.58;;;14.98;9.72
64698;BME280;51124;53.394;-6.294;2024-02-26T02:05:28;100493.07;;;15.16;9.54
64698;BME280;51124;53.394;-6.294;2024-02-26T02:07:56;100497.99;;;15.17;9.43
64698;BME280;51124;53.394;-6.294;2024-02-26T02:10:24;100500.71;;;15.09;9.36
64698;BME280;51124;53.394;-6.294;2024-02-26T02:12:52;100510.50;;;15.27;9.40
64698;BME280;51124;53.394;-6.294;2024-02-26T02:15:19;100518.41;;;15.02;9.38
64698;BME280;51124;53.394;-6.294;2024-02-26T02:17:47;100519.08;;;14.67;9.19
64698;BME280;51124;53.394;-6.294;2024-02-26T02:20:17;100526.51;;;15.18;9.25
64698;BME280;51124;53.394;-6.294;2024-02-26T02:22:45;100527.05;;;14.66;9.12
64698;BME280;51124;53.394;-6.294;2024-02-26T02:25:13;100538.06;;;15.31;9.10
64698;BME280;51124;53.394;-6.294;2024-02-26T02:27:41;100541.59;;;14.85;9.27
64698;BME280;51124;53.394;-6.294;2024-02-26T02:30:10;100548.72;;;14.65;9.15
64698;BME280;51124;53.394;-6.294;2024-02-26T02:32:39;100550.89;;;14.17;9.20
64698;BME280;51124;53.394;-6.294;2024-02-26T02:35:08;100546.15;;;14.91;9.04
64698;BME280;51124;53.394;-6.294;2024-02-26T02:37:35;100550.29;;;14.61;9.08
64698;BME280;51124;53.394;-6.294;2024-02-26T02:40:03;100554.77;;;15.09;9.10
64698;BME280;51124;53.394;-6.294;2024-02-26T02:42:30;100562.25;;;14.61;8.98
64698;BME280;51124;53.394;-6.294;2024-02-26T02:44:58;100571.66;;;14.80;9.15
64698;BME280;51124;53.394;-6.294;2024-02-26T02:47:25;100566.57;;;15.30;9.09
64698;BME280;51124;53.394;-6.294;2024-02-26T02:49:52;100576.60;;;15.20;9.02
64698;BME280;51124;53.394;-6.294;2024-02-26T02:52:20;100582.56;;;14.34;9.04
64698;BME280;51124;53.394;-6.294;2024-02-26T02:54:47;100590.44;;;15.13;9.07
64698;BME280;51124;53.394;-6.294;2024-02-26T02:57:15;100602.89;;;15.35;9.06
64698;BME280;51124;53.394;-6.294;2024-02-26T02:59:43;100604.13;;;14.97;9.06
64698;BME280;51124;53.394;-6.294;2024-02-26T03:02:10;100614.11;;;14.86;9.11
64698;BME280;51124;53.394;-6.294;2024-02-26T03:04:38;100610.12;;;15.32;9.02
64698;BME280;51124;53.394;-6.294;2024-02-26T03:07:05;100615.42;;;15.34;9.21
64698;BME280;51124;53.394;-6.294;2024-02-26T03:09:33;100619.84;;;14.40;9.17
64698;BME280;51124;53.394;-6.294;2024-02-26T03:12:00;100622.45;;;14.69;9.18
64698;BME280;51124;53.394;-6.294;2024-02-26T03:14:27;100628.07;;;15.12;9.17
64698;BME280;51124;53.394;-6.294;2024-02-26T03:16:55;100635.61;;;14.84;9.23
64698;BME280;51124;53.394;-6.294;2024-02-26T03:19:23;100644.05;;;14.56;9.20
64698;BME280;51124;53.394;-6.294;2024-02-26T03:21:50;100646.91;;;15.27;9.11
64698;BME280;51124;53.394;-6.294;2024-02-26T03:24:18;100651.80;;;13.87;9.27
64698;BME280;51124;53.394;-6.294;2024-02-26T03:26:45;100647.84;;;15.23;9.21
64698;BME280;51124;53.394;-6.294;2024-02-26T03:29:12;100656.60;;;15.38;9.25
64698;BME280;51124;53.394;-6.294;2024-02-26T03:31:40;100661.53;;;14.69;9.32
64698;BME280;51124;53.394;-6.294;2024-02-26T03:34:08;100659.29;;;14.30;9.19
64698;BME280;51124;53.394;-6.294;2024-02-26T03:36:35;100657.43;;;15.12;9.09
64698;BME280;51124;53.394;-6.294;2024-02-26T03:39:02;100660.86;;;14.84;8.99
64698;BME280;51124;53.394;-6.294;2024-02-26T03:41:30;100672.31;;;14.50;9.05
64698;BME280;51124;53.394;-6.294;2024-02-26T03:43:57;100683.68;;;17.44;9.21
64698;BME280;51124;53.394;-6.294;2024-02-26T03:46:25;100692.12;;;16.92;9.64
64698;BME280;51124;53.394;-6.294;2024-02-26T03:48:52;100695.12;;;15.52;9.82
64698;BME280;51124;53.394;-6.294;2024-02-26T03:51:20;100703.07;;;14.51;9.82
64698;BME280;51124;53.394;-6.294;2024-02-26T03:53:47;100717.80;;;18.22;10.14
64698;BME280;51124;53.394;-6.294;2024-02-26T03:56:15;100725.35;;;18.28;10.62
64698;BME280;51124;53.394;-6.294;2024-02-26T03:58:43;100739.47;;;17.63;10.95
64698;BME280;51124;53.394;-6.294;2024-02-26T04:01:11;100749.69;;;16.86;11.20
64698;BME280;51124;53.394;-6.294;2024-02-26T04:03:39;100749.67;;;16.66;11.35
64698;BME280;51124;53.394;-6.294;2024-02-26T04:06:08;100751.38;;;17.45;11.28
64698;BME280;51124;53.394;-6.294;2024-02-26T04:08:36;100752.64;;;17.59;11.32
64698;BME280;51124;53.394;-6.294;2024-02-26T04:11:04;100752.82;;;17.00;11.50
64698;BME280;51124;53.394;-6.294;2024-02-26T04:13:32;100759.53;;;17.43;11.37
64698;BME280;51124;53.394;-6.294;2024-02-26T04:15:59;100769.47;;;17.30;11.44
64698;BME280;51124;53.394;-6.294;2024-02-26T04:18:27;100781.34;;;16.75;11.49
64698;BME280;51124;53.394;-6.294;2024-02-26T04:20:55;100787.30;;;17.23;11.60
64698;BME280;51124;53.394;-6.294;2024-02-26T04:23:23;100788.00;;;16.91;11.69
64698;BME280;51124;53.394;-6.294;2024-02-26T04:25:51;100787.43;;;16.81;11.61
64698;BME280;51124;53.394;-6.294;2024-02-26T04:28:19;100795.77;;;16.42;11.79
64698;BME280;51124;53.394;-6.294;2024-02-26T04:30:47;100807.61;;;17.16;11.64
64698;BME280;51124;53.394;-6.294;2024-02-26T04:33:15;100818.04;;;17.30;11.73
64698;BME280;51124;53.394;-6.294;2024-02-26T04:35:42;100817.83;;;16.33;11.89
64698;BME280;51124;53.394;-6.294;2024-02-26T04:38:10;100824.10;;;16.52;11.76
64698;BME280;51124;53.394;-6.294;2024-02-26T04:40:38;100825.12;;;16.68;11.73
64698;BME280;51124;53.394;-6.294;2024-02-26T04:43:06;100836.09;;;15.52;11.79
64698;BME280;51124;53.394;-6.294;2024-02-26T04:45:33;100834.79;;;14.80;11.44
64698;BME280;51124;53.394;-6.294;2024-02-26T04:48:01;100839.56;;;14.83;10.88
64698;BME280;51124;53.394;-6.294;2024-02-26T04:50:29;100838.73;;;14.74;10.63
64698;BME280;51124;53.394;-6.294;2024-02-26T04:52:56;100843.78;;;14.34;10.41
64698;BME280;51124;53.394;-6.294;2024-02-26T04:55:24;100852.65;;;14.81;10.28
64698;BME280;51124;53.394;-6.294;2024-02-26T04:57:51;100860.33;;;14.52;10.11
64698;BME280;51124;53.394;-6.294;2024-02-26T05:00:19;100867.42;;;13.96;9.99
64698;BME280;51124;53.394;-6.294;2024-02-26T05:02:46;100867.06;;;14.27;9.84
64698;BME280;51124;53.394;-6.294;2024-02-26T05:05:14;100876.18;;;14.65;9.72
64698;BME280;51124;53.394;-6.294;2024-02-26T05:07:42;100880.52;;;13.73;9.71
64698;BME280;51124;53.394;-6.294;2024-02-26T05:10:10;100878.76;;;14.83;9.57
64698;BME280;51124;53.394;-6.294;2024-02-26T05:12:37;100884.70;;;14.25;9.60
64698;BME280;51124;53.394;-6.294;2024-02-26T05:15:05;100894.23;;;13.90;9.58
64698;BME280;51124;53.394;-6.294;2024-02-26T05:17:33;100899.30;;;14.43;9.43
64698;BME280;51124;53.394;-6.294;2024-02-26T05:20:00;100903.63;;;13.87;9.50
64698;BME280;51124;53.394;-6.294;2024-02-26T05:22:28;100907.97;;;14.88;9.45
64698;BME280;51124;53.394;-6.294;2024-02-26T05:25:00;100916.63;;;14.01;9.50
64698;BME280;51124;53.394;-6.294;2024-02-26T05:27:28;100927.13;;;14.41;9.40
64698;BME280;51124;53.394;-6.294;2024-02-26T05:29:56;100936.37;;;14.40;9.47
64698;BME280;51124;53.394;-6.294;2024-02-26T05:32:24;100942.60;;;14.43;9.35
64698;BME280;51124;53.394;-6.294;2024-02-26T05:34:52;100947.44;;;15.41;9.18
64698;BME280;51124;53.394;-6.294;2024-02-26T05:37:20;100949.85;;;13.89;9.41
64698;BME280;51124;53.394;-6.294;2024-02-26T05:39:47;100954.37;;;14.49;9.29
64698;BME280;51124;53.394;-6.294;2024-02-26T05:42:15;100958.88;;;14.48;9.42
64698;BME280;51124;53.394;-6.294;2024-02-26T05:44:43;100965.10;;;14.62;9.19
64698;BME280;51124;53.394;-6.294;2024-02-26T05:47:10;100972.65;;;13.88;9.29
64698;BME280;51124;53.394;-6.294;2024-02-26T05:49:38;100974.72;;;14.53;9.25
64698;BME280;51124;53.394;-6.294;2024-02-26T05:52:05;100987.77;;;14.22;9.32
64698;BME280;51124;53.394;-6.294;2024-02-26T05:54:33;100993.76;;;14.14;9.30
64698;BME280;51124;53.394;-6.294;2024-02-26T05:57:00;100986.04;;;14.10;9.25
64698;BME280;51124;53.394;-6.294;2024-02-26T05:59:28;100990.70;;;14.24;9.24
64698;BME280;51124;53.394;-6.294;2024-02-26T06:01:55;100986.12;;;15.00;9.22
64698;BME280;51124;53.394;-6.294;2024-02-26T06:04:23;100988.38;;;13.95;9.36
64698;BME280;51124;53.394;-6.294;2024-02-26T06:06:50;100988.08;;;14.37;9.27
64698;BME280;51124;53.394;-6.294;2024-02-26T06:09:18;100978.12;;;14.29;9.17
64698;BME280;51124;53.394;-6.294;2024-02-26T06:11:45;100983.35;;;14.42;9.29
64698;BME280;51124;53.394;-6.294;2024-02-26T06:14:13;100989.28;;;13.40;9.31
64698;BME280;51124;53.394;-6.294;2024-02-26T06:16:40;100985.23;;;14.70;9.10
64698;BME280;51124;53.394;-6.294;2024-02-26T06:19:08;100989.48;;;13.44;9.36
64698;BME280;51124;53.394;-6.294;2024-02-26T06:21:45;100993.15;;;14.65;9.30
64698;BME280;51124;53.394;-6.294;2024-02-26T06:24:13;100996.23;;;14.38;9.19
64698;BME280;51124;53.394;-6.294;2024-02-26T06:26:40;101004.43;;;14.10;9.28
64698;BME280;51124;53.394;-6.294;2024-02-26T06:29:07;101010.24;;;14.36;9.34
64698;BME280;51124;53.394;-6.294;2024-02-26T06:31:35;101014.78;;;14.33;9.39
64698;BME280;51124;53.394;-6.294;2024-02-26T06:34:02;101019.13;;;14.76;9.37
64698;BME280;51124;53.394;-6.294;2024-02-26T06:36:29;101024.50;;;13.64;9.36
64698;BME280;51124;53.394;-6.294;2024-02-26T06:38:57;101027.79;;;13.91;9.36
64698;BME280;51124;53.394;-6.294;2024-02-26T06:41:25;101030.84;;;13.93;9.22
64698;BME280;51124;53.394;-6.294;2024-02-26T06:43:52;101038.17;;;14.12;9.20
64698;BME280;51124;53.394;-6.294;2024-02-26T06:46:20;101046.15;;;14.56;9.34
64698;BME280;51124;53.394;-6.294;2024-02-26T06:48:48;101056.34;;;16.28;9.62
64698;BME280;51124;53.394;-6.294;2024-02-26T06:51:15;101067.05;;;16.00;9.98
64698;BME280;51124;53.394;-6.294;2024-02-26T06:53:43;101065.53;;;14.84;10.09
64698;BME280;51124;53.394;-6.294;2024-02-26T06:56:11;101070.84;;;14.46;10.06
64698;BME280;51124;53.394;-6.294;2024-02-26T06:58:39;101072.39;;;17.71;10.34
64698;BME280;51124;53.394;-6.294;2024-02-26T07:01:07;101074.68;;;16.81;10.80
64698;BME280;51124;53.394;-6.294;2024-02-26T07:03:34;101079.08;;;17.39;10.98
64698;BME280;51124;53.394;-6.294;2024-02-26T07:06:02;101075.48;;;17.17;11.28
64698;BME280;51124;53.394;-6.294;2024-02-26T07:08:30;101074.22;;;16.36;11.40
64698;BME280;51124;53.394;-6.294;2024-02-26T07:10:58;101077.18;;;16.40;11.42
64698;BME280;51124;53.394;-6.294;2024-02-26T07:13:26;101079.16;;;15.99;11.68
64698;BME280;51124;53.394;-6.294;2024-02-26T07:15:54;101081.80;;;15.91;11.63
64698;BME280;51124;53.394;-6.294;2024-02-26T07:18:22;101093.82;;;16.16;11.69
64698;BME280;51124;53.394;-6.294;2024-02-26T07:20:50;101098.33;;;15.91;11.88
64698;BME280;51124;53.394;-6.294;2024-02-26T07:23:27;101104.70;;;16.34;11.74
64698;BME280;51124;53.394;-6.294;2024-02-26T07:25:55;101105.83;;;16.57;11.74
64698;BME280;51124;53.394;-6.294;2024-02-26T07:28:23;101106.27;;;16.70;11.71
64698;BME280;51124;53.394;-6.294;2024-02-26T07:30:51;101107.52;;;16.14;11.71
64698;BME280;51124;53.394;-6.294;2024-02-26T07:33:19;101113.74;;;16.25;11.66
64698;BME280;51124;53.394;-6.294;2024-02-26T07:35:47;101120.72;;;16.45;11.71
64698;BME280;51124;53.394;-6.294;2024-02-26T07:38:15;101123.38;;;15.86;11.97
64698;BME280;51124;53.394;-6.294;2024-02-26T07:40:44;101126.44;;;16.46;11.72
64698;BME280;51124;53.394;-6.294;2024-02-26T07:43:11;101128.97;;;16.87;11.59
64698;BME280;51124;53.394;-6.294;2024-02-26T07:45:40;101132.90;;;16.98;11.54
64698;BME280;51124;53.394;-6.294;2024-02-26T07:48:08;101131.48;;;15.90;11.43
64698;BME280;51124;53.394;-6.294;2024-02-26T07:50:35;101138.15;;;14.39;11.19
64698;BME280;51124;53.394;-6.294;2024-02-26T07:53:03;101138.99;;;14.68;10.71
64698;BME280;51124;53.394;-6.294;2024-02-26T07:55:30;101140.41;;;15.23;10.40
64698;BME280;51124;53.394;-6.294;2024-02-26T07:57:57;101142.50;;;15.64;10.06
64698;BME280;51124;53.394;-6.294;2024-02-26T08:00:25;101150.01;;;15.79;10.24
64698;BME280;51124;53.394;-6.294;2024-02-26T08:02:52;101156.57;;;15.65;9.93
64698;BME280;51124;53.394;-6.294;2024-02-26T08:05:20;101166.54;;;15.13;9.65
64698;BME280;51124;53.394;-6.294;2024-02-26T08:07:47;101167.99;;;14.47;9.60
64698;BME280;51124;53.394;-6.294;2024-02-26T08:10:15;101174.99;;;15.39;9.33
64698;BME280;51124;53.394;-6.294;2024-02-26T08:12:42;101175.96;;;15.50;9.10
64698;BME280;51124;53.394;-6.294;2024-02-26T08:15:10;101187.12;;;15.43;9.22
64698;BME280;51124;53.394;-6.294;2024-02-26T08:17:37;101195.51;;;15.01;9.27
64698;BME280;51124;53.394;-6.294;2024-02-26T08:20:06;101203.65;;;15.61;9.14
64698;BME280;51124;53.394;-6.294;2024-02-26T08:22:33;101209.76;;;15.89;9.11
64698;BME280;51124;53.394;-6.294;2024-02-26T08:25:01;101210.56;;;15.00;9.15
64698;BME280;51124;53.394;-6.294;2024-02-26T08:27:28;101218.44;;;15.92;8.92
64698;BME280;51124;53.394;-6.294;2024-02-26T08:29:56;101225.66;;;15.65;9.04
64698;BME280;51124;53.394;-6.294;2024-02-26T08:32:23;101225.50;;;15.39;8.94
64698;BME280;51124;53.394;-6.294;2024-02-26T08:34:50;101226.78;;;15.47;8.95
64698;BME280;51124;53.394;-6.294;2024-02-26T08:37:18;101231.79;;;15.24;9.01
64698;BME280;51124;53.394;-6.294;2024-02-26T08:39:45;101238.19;;;15.24;9.01
64698;BME280;51124;53.394;-6.294;2024-02-26T08:42:13;101236.13;;;15.12;8.91
64698;BME280;51124;53.394;-6.294;2024-02-26T08:44:40;101244.94;;;15.30;8.91
64698;BME280;51124;53.394;-6.294;2024-02-26T08:47:07;101253.26;;;15.72;8.88
64698;BME280;51124;53.394;-6.294;2024-02-26T08:49:35;101264.92;;;14.97;8.87
64698;BME280;51124;53.394;-6.294;2024-02-26T08:52:04;101275.11;;;15.35;8.97
64698;BME280;51124;53.394;-6.294;2024-02-26T08:54:31;101279.11;;;15.58;8.75
64698;BME280;51124;53.394;-6.294;2024-02-26T08:56:59;101287.74;;;15.45;8.86
64698;BME280;51124;53.394;-6.294;2024-02-26T08:59:26;101293.20;;;15.58;8.78
64698;BME280;51124;53.394;-6.294;2024-02-26T09:01:54;101292.23;;;15.11;8.78
64698;BME280;51124;53.394;-6.294;2024-02-26T09:04:21;101302.22;;;15.35;8.80
64698;BME280;51124;53.394;-6.294;2024-02-26T09:06:49;101308.98;;;16.05;8.78
64698;BME280;51124;53.394;-6.294;2024-02-26T09:09:16;101311.10;;;15.34;8.87
64698;BME280;51124;53.394;-6.294;2024-02-26T09:11:44;101308.67;;;14.58;8.94
64698;BME280;51124;53.394;-6.294;2024-02-26T09:14:12;101305.81;;;14.35;8.90
64698;BME280;51124;53.394;-6.294;2024-02-26T09:16:39;101305.33;;;15.52;8.82
64698;BME280;51124;53.394;-6.294;2024-02-26T09:19:07;101313.58;;;14.75;8.81
64698;BME280;51124;53.394;-6.294;2024-02-26T09:21:34;101315.73;;;14.79;8.79
64698;BME280;51124;53.394;-6.294;2024-02-26T09:24:02;101316.51;;;15.95;8.79
64698;BME280;51124;53.394;-6.294;2024-02-26T09:26:29;101325.52;;;15.16;8.92
64698;BME280;51124;53.394;-6.294;2024-02-26T09:28:57;101329.83;;;14.86;9.01
64698;BME280;51124;53.394;-6.294;2024-02-26T09:31:24;101329.66;;;14.87;8.96
64698;BME280;51124;53.394;-6.294;2024-02-26T09:33:54;101326.28;;;15.18;8.83
64698;BME280;51124;53.394;-6.294;2024-02-26T09:36:22;101331.52;;;16.09;8.78
64698;BME280;51124;53.394;-6.294;2024-02-26T09:38:49;101335.45;;;14.77;8.90
64698;BME280;51124;53.394;-6.294;2024-02-26T09:41:17;101349.43;;;14.74;8.96
64698;BME280;51124;53.394;-6.294;2024-02-26T09:43:46;101354.55;;;14.71;8.79
64698;BME280;51124;53.394;-6.294;2024-02-26T09:46:17;101362.21;;;15.39;8.78
64698;BME280;51124;53.394;-6.294;2024-02-26T09:48:45;101355.55;;;15.08;8.78
64698;BME280;51124;53.394;-6.294;2024-02-26T09:51:14;101353.57;;;15.15;8.73
64698;BME280;51124;53.394;-6.294;2024-02-26T09:53:44;101357.43;;;16.56;8.83
64698;BME280;51124;53.394;-6.294;2024-02-26T09:56:14;101354.21;;;17.97;9.12
64698;BME280;51124;53.394;-6.294;2024-02-26T09:58:43;101359.50;;;17.27;9.45
64698;BME280;51124;53.394;-6.294;2024-02-26T10:01:14;101353.45;;;16.15;9.53
64698;BME280;51124;53.394;-6.294;2024-02-26T10:03:44;101348.31;;;17.18;9.38
64698;BME280;51124;53.394;-6.294;2024-02-26T10:06:15;101347.76;;;19.01;9.80
64698;BME280;51124;53.394;-6.294;2024-02-26T10:08:44;101344.45;;;18.62;9.85
64698;BME280;51124;53.394;-6.294;2024-02-26T10:11:12;101341.18;;;18.22;10.29
64698;BME280;51124;53.394;-6.294;2024-02-26T10:13:40;101337.21;;;17.96;10.42
64698;BME280;51124;53.394;-6.294;2024-02-26T10:16:09;101330.34;;;18.39;10.58
64698;BME280;51124;53.394;-6.294;2024-02-26T10:18:53;101336.37;;;17.99;10.56
64698;BME280;51124;53.394;-6.294;2024-02-26T10:21:11;101330.62;;;17.79;10.62
64698;BME280;51124;53.394;-6.294;2024-02-26T10:23:38;101331.10;;;18.04;10.65
64698;BME280;51124;53.394;-6.294;2024-02-26T10:26:06;101330.38;;;18.21;10.64
64698;BME280;51124;53.394;-6.294;2024-02-26T10:28:35;101333.72;;;18.14;10.55
64698;BME280;51124;53.394;-6.294;2024-02-26T10:31:03;101337.29;;;17.98;10.53
64698;BME280;51124;53.394;-6.294;2024-02-26T10:33:33;101333.29;;;18.08;10.63
64698;BME280;51124;53.394;-6.294;2024-02-26T10:36:01;101329.01;;;17.61;10.47
64698;BME280;51124;53.394;-6.294;2024-02-26T10:38:29;101330.34;;;18.13;10.50
64698;BME280;51124;53.394;-6.294;2024-02-26T10:40:57;101330.28;;;17.92;10.54
64698;BME280;51124;53.394;-6.294;2024-02-26T10:43:25;101331.26;;;18.72;10.58
64698;BME280;51124;53.394;-6.294;2024-02-26T10:45:54;101325.11;;;18.31;10.45
64698;BME280;51124;53.394;-6.294;2024-02-26T10:48:22;101321.10;;;18.23;10.40
64698;BME280;51124;53.394;-6.294;2024-02-26T10:50:50;101337.64;;;17.91;10.48
64698;BME280;51124;53.394;-6.294;2024-02-26T10:53:20;101332.80;;;18.21;10.36
64698;BME280;51124;53.394;-6.294;2024-02-26T10:55:52;101339.83;;;17.52;10.09
64698;BME280;51124;53.394;-6.294;2024-02-26T10:58:22;101334.58;;;16.61;9.68
64698;BME280;51124;53.394;-6.294;2024-02-26T11:00:51;101346.17;;;16.63;9.33
64698;BME280;51124;53.394;-6.294;2024-02-26T11:03:25;101348.75;;;17.05;8.95
64698;BME280;51124;53.394;-6.294;2024-02-26T11:05:53;101354.02;;;17.32;8.47
64698;BME280;51124;53.394;-6.294;2024-02-26T11:08:21;101369.06;;;18.28;8.41
64698;BME280;51124;53.394;-6.294;2024-02-26T11:10:50;101373.34;;;17.12;8.34
64698;BME280;51124;53.394;-6.294;2024-02-26T11:13:21;101374.67;;;17.92;7.97
64698;BME280;51124;53.394;-6.294;2024-02-26T11:15:49;101385.53;;;17.64;7.96
64698;BME280;51124;53.394;-6.294;2024-02-26T11:18:17;101390.78;;;17.69;7.88
64698;BME280;51124;53.394;-6.294;2024-02-26T11:20:46;101391.56;;;17.99;7.67
64698;BME280;51124;53.394;-6.294;2024-02-26T11:23:15;101398.15;;;18.54;7.55
64698;BME280;51124;53.394;-6.294;2024-02-26T11:25:43;101400.80;;;18.09;7.51
64698;BME280;51124;53.394;-6.294;2024-02-26T11:28:14;101394.33;;;18.64;7.37
64698;BME280;51124;53.394;-6.294;2024-02-26T11:30:46;101401.53;;;18.75;7.28
64698;BME280;51124;53.394;-6.294;2024-02-26T11:33:16;101410.18;;;18.42;7.25
64698;BME280;51124;53.394;-6.294;2024-02-26T11:35:44;101410.30;;;18.61;7.22
64698;BME280;51124;53.394;-6.294;2024-02-26T11:38:19;101423.66;;;19.08;7.15
64698;BME280;51124;53.394;-6.294;2024-02-26T11:40:47;101431.23;;;17.77;7.27
64698;BME280;51124;53.394;-6.294;2024-02-26T11:43:14;101444.60;;;18.48;7.10
64698;BME280;51124;53.394;-6.294;2024-02-26T11:45:57;101448.56;;;18.92;7.09
64698;BME280;51124;53.394;-6.294;2024-02-26T11:48:16;101465.85;;;18.79;6.97
64698;BME280;51124;53.394;-6.294;2024-02-26T11:50:46;101465.07;;;18.04;6.99
64698;BME280;51124;53.394;-6.294;2024-02-26T11:53:22;101464.63;;;18.44;6.99
64698;BME280;51124;53.394;-6.294;2024-02-26T11:55:40;101472.24;;;19.22;6.94
64698;BME280;51124;53.394;-6.294;2024-02-26T11:58:07;101464.16;;;18.37;6.87
64698;BME280;51124;53.394;-6.294;2024-02-26T12:00:34;101478.59;;;19.24;6.85
64698;BME280;51124;53.394;-6.294;2024-02-26T12:03:03;101472.84;;;18.51;6.84
64698;BME280;51124;53.394;-6.294;2024-02-26T12:05:33;101469.73;;;20.00;6.83
64698;BME280;51124;53.394;-6.294;2024-02-26T12:08:02;101473.16;;;19.10;6.79
64698;BME280;51124;53.394;-6.294;2024-02-26T12:10:33;101479.45;;;19.48;6.69
64698;BME280;51124;53.394;-6.294;2024-02-26T12:13:02;101479.41;;;19.33;6.53
64698;BME280;51124;53.394;-6.294;2024-02-26T12:15:33;101487.04;;;19.21;6.76
64698;BME280;51124;53.394;-6.294;2024-02-26T12:18:04;101492.06;;;18.27;6.76
64698;BME280;51124;53.394;-6.294;2024-02-26T12:20:33;101489.64;;;19.07;6.74
64698;BME280;51124;53.394;-6.294;2024-02-26T12:23:01;101486.22;;;18.99;6.56
64698;BME280;51124;53.394;-6.294;2024-02-26T12:25:30;101488.09;;;19.29;6.72
64698;BME280;51124;53.394;-6.294;2024-02-26T12:27:58;101483.74;;;19.25;6.66
64698;BME280;51124;53.394;-6.294;2024-02-26T12:30:26;101480.33;;;20.28;6.61
64698;BME280;51124;53.394;-6.294;2024-02-26T12:32:55;101482.99;;;19.76;6.60
64698;BME280;51124;53.394;-6.294;2024-02-26T12:35:23;101486.77;;;20.05;6.61
64698;BME280;51124;53.394;-6.294;2024-02-26T12:37:51;101483.66;;;18.77;6.62
64698;BME280;51124;53.394;-6.294;2024-02-26T12:40:19;101486.29;;;20.49;6.43
64698;BME280;51124;53.394;-6.294;2024-02-26T12:42:47;101490.18;;;18.95;6.57
64698;BME280;51124;53.394;-6.294;2024-02-26T12:45:15;101484.07;;;20.41;6.59
64698;BME280;51124;53.394;-6.294;2024-02-26T12:47:44;101480.71;;;19.32;6.52
64698;BME280;51124;53.394;-6.294;2024-02-26T12:50:12;101474.67;;;19.28;6.51
64698;BME280;51124;53.394;-6.294;2024-02-26T12:52:42;101483.88;;;19.66;6.39